sensor_id;sensor_type;location;lat;lon;timestamp;P1;durP1;ratioP1;P2;durP2;ratioP2
16137;SDS011;8174;43.550;5.206;2022-10-04T00:00:21;5.50;;;2.20;;
16137;SDS011;8174;43.550;5.206;2022-10-04T00:02:52;4.10;;;2.20;;
16137;SDS011;8174;43.550;5.206;2022-10-04T00:05:22;4.10;;;1.73;;
16137;SDS011;8174;43.550;5.206;2022-10-04T00:07:51;5.87;;;2.33;;
16137;SDS011;8174;43.550;5.206;2022-10-04T00:10:21;3.93;;;2.30;;
16137;SDS011;8174;43.550;5.206;2022-10-04T00:12:50;5.17;;;2.40;;
16137;SDS011;8174;43.550;5.206;2022-10-04T00:15:19;6.83;;;2.60;;
16137;SDS011;8174;43.550;5.206;2022-10-04T00:23:39;2.83;;;2.30;;
16137;SDS011;8174;43.550;5.206;2022-10-04T00:26:09;3.80;;;2.30;;
16137;SDS011;8174;43.550;5.206;2022-10-04T00:28:43;4.63;;;2.20;;
16137;SDS011;8174;43.550;5.206;2022-10-04T00:31:12;5.30;;;2.63;;
16137;SDS011;8174;43.550;5.206;2022-10-04T00:33:40;4.77;;;2.50;;
16137;SDS011;8174;43.550;5.206;2022-10-04T00:39:03;6.87;;;2.40;;
16137;SDS011;8174;43.550;5.206;2022-10-04T00:41:41;5.47;;;2.77;;
16137;SDS011;8174;43.550;5.206;2022-10-04T00:44:13;7.57;;;2.53;;
16137;SDS011;8174;43.550;5.206;2022-10-04T00:46:43;3.50;;;2.33;;
16137;SDS011;8174;43.550;5.206;2022-10-04T00:49:11;5.07;;;2.30;;
16137;SDS011;8174;43.550;5.206;2022-10-04T00:51:40;2.87;;;2.33;;
16137;SDS011;8174;43.550;5.206;2022-10-04T00:54:11;4.30;;;2.20;;
16137;SDS011;8174;43.550;5.206;2022-10-04T00:56:42;6.10;;;2.70;;
16137;SDS011;8174;43.550;5.206;2022-10-04T00:59:20;5.50;;;2.50;;
16137;SDS011;8174;43.550;5.206;2022-10-04T01:01:51;2.83;;;2.37;;
16137;SDS011;8174;43.550;5.206;2022-10-04T01:04:26;4.43;;;2.53;;
16137;SDS011;8174;43.550;5.206;2022-10-04T01:06:56;3.97;;;2.80;;
16137;SDS011;8174;43.550;5.206;2022-10-04T01:09:26;4.83;;;2.50;;
16137;SDS011;8174;43.550;5.206;2022-10-04T01:11:57;3.93;;;2.43;;
16137;SDS011;8174;43.550;5.206;2022-10-04T01:14:31;3.37;;;2.60;;
16137;SDS011;8174;43.550;5.206;2022-10-04T01:17:03;5.93;;;2.90;;
16137;SDS011;8174;43.550;5.206;2022-10-04T01:19:31;3.53;;;2.30;;
16137;SDS011;8174;43.550;5.206;2022-10-04T01:22:02;3.47;;;2.60;;
16137;SDS011;8174;43.550;5.206;2022-10-04T01:24:37;5.03;;;2.50;;
16137;SDS011;8174;43.550;5.206;2022-10-04T01:29:50;4.43;;;2.60;;
16137;SDS011;8174;43.550;5.206;2022-10-04T01:32:20;8.43;;;2.80;;
16137;SDS011;8174;43.550;5.206;2022-10-04T01:34:48;7.67;;;2.70;;
16137;SDS011;8174;43.550;5.206;2022-10-04T01:37:19;6.13;;;2.70;;
16137;SDS011;8174;43.550;5.206;2022-10-04T01:39:48;3.97;;;2.60;;
16137;SDS011;8174;43.550;5.206;2022-10-04T01:42:19;4.13;;;2.80;;
16137;SDS011;8174;43.550;5.206;2022-10-04T01:44:52;3.83;;;2.70;;
16137;SDS011;8174;43.550;5.206;2022-10-04T01:47:22;5.47;;;2.80;;
16137;SDS011;8174;43.550;5.206;2022-10-04T01:49:57;7.57;;;3.00;;
16137;SDS011;8174;43.550;5.206;2022-10-04T01:52:32;6.43;;;2.80;;
16137;SDS011;8174;43.550;5.206;2022-10-04T01:55:04;4.70;;;3.03;;
16137;SDS011;8174;43.550;5.206;2022-10-04T01:57:34;8.97;;;2.83;;
16137;SDS011;8174;43.550;5.206;2022-10-04T02:00:05;8.10;;;2.90;;
16137;SDS011;8174;43.550;5.206;2022-10-04T02:02:46;6.23;;;2.60;;
16137;SDS011;8174;43.550;5.206;2022-10-04T02:05:18;5.37;;;2.73;;
16137;SDS011;8174;43.550;5.206;2022-10-04T02:07:47;6.53;;;2.70;;
16137;SDS011;8174;43.550;5.206;2022-10-04T02:10:17;4.47;;;2.67;;
16137;SDS011;8174;43.550;5.206;2022-10-04T02:12:46;4.77;;;2.73;;
16137;SDS011;8174;43.550;5.206;2022-10-04T02:15:16;6.13;;;2.60;;
16137;SDS011;8174;43.550;5.206;2022-10-04T02:17:47;4.87;;;2.97;;
16137;SDS011;8174;43.550;5.206;2022-10-04T02:20:18;4.67;;;2.80;;
16137;SDS011;8174;43.550;5.206;2022-10-04T02:22:48;5.70;;;2.80;;
16137;SDS011;8174;43.550;5.206;2022-10-04T02:25:18;3.07;;;2.60;;
16137;SDS011;8174;43.550;5.206;2022-10-04T02:27:52;5.27;;;2.80;;
16137;SDS011;8174;43.550;5.206;2022-10-04T02:30:20;6.53;;;2.80;;
16137;SDS011;8174;43.550;5.206;2022-10-04T02:32:47;7.80;;;3.40;;
16137;SDS011;8174;43.550;5.206;2022-10-04T02:35:25;2.97;;;2.57;;
16137;SDS011;8174;43.550;5.206;2022-10-04T02:37:54;5.87;;;3.00;;
16137;SDS011;8174;43.550;5.206;2022-10-04T02:40:29;3.13;;;2.47;;
16137;SDS011;8174;43.550;5.206;2022-10-04T02:42:58;4.00;;;2.80;;
16137;SDS011;8174;43.550;5.206;2022-10-04T02:45:28;5.47;;;2.57;;
16137;SDS011;8174;43.550;5.206;2022-10-04T02:47:59;3.20;;;2.63;;
16137;SDS011;8174;43.550;5.206;2022-10-04T02:50:28;4.53;;;2.77;;
16137;SDS011;8174;43.550;5.206;2022-10-04T02:52:58;5.80;;;3.07;;
16137;SDS011;8174;43.550;5.206;2022-10-04T02:55:30;3.50;;;2.53;;
16137;SDS011;8174;43.550;5.206;2022-10-04T02:58:00;3.23;;;2.70;;
16137;SDS011;8174;43.550;5.206;2022-10-04T03:00:29;6.60;;;2.90;;
16137;SDS011;8174;43.550;5.206;2022-10-04T03:03:14;3.00;;;2.50;;
16137;SDS011;8174;43.550;5.206;2022-10-04T03:05:44;4.80;;;2.97;;
16137;SDS011;8174;43.550;5.206;2022-10-04T03:08:13;4.27;;;2.90;;
16137;SDS011;8174;43.550;5.206;2022-10-04T03:10:43;3.93;;;2.70;;
16137;SDS011;8174;43.550;5.206;2022-10-04T03:13:12;6.20;;;2.93;;
16137;SDS011;8174;43.550;5.206;2022-10-04T03:15:40;4.73;;;3.13;;
16137;SDS011;8174;43.550;5.206;2022-10-04T03:18:09;6.43;;;2.63;;
16137;SDS011;8174;43.550;5.206;2022-10-04T03:20:37;6.30;;;2.90;;
16137;SDS011;8174;43.550;5.206;2022-10-04T03:23:05;7.00;;;2.90;;
16137;SDS011;8174;43.550;5.206;2022-10-04T03:25:40;4.50;;;2.90;;
16137;SDS011;8174;43.550;5.206;2022-10-04T03:28:11;4.17;;;2.77;;
16137;SDS011;8174;43.550;5.206;2022-10-04T03:30:41;4.73;;;3.03;;
16137;SDS011;8174;43.550;5.206;2022-10-04T03:33:12;3.93;;;2.80;;
16137;SDS011;8174;43.550;5.206;2022-10-04T03:35:42;3.90;;;2.60;;
16137;SDS011;8174;43.550;5.206;2022-10-04T03:38:11;7.00;;;2.90;;
16137;SDS011;8174;43.550;5.206;2022-10-04T03:40:41;3.23;;;2.53;;
16137;SDS011;8174;43.550;5.206;2022-10-04T03:43:12;4.37;;;2.43;;
16137;SDS011;8174;43.550;5.206;2022-10-04T03:45:40;7.83;;;2.70;;
16137;SDS011;8174;43.550;5.206;2022-10-04T03:48:10;4.00;;;2.63;;
16137;SDS011;8174;43.550;5.206;2022-10-04T03:50:40;4.00;;;2.57;;
16137;SDS011;8174;43.550;5.206;2022-10-04T03:53:13;6.93;;;3.10;;
16137;SDS011;8174;43.550;5.206;2022-10-04T03:55:41;6.37;;;3.03;;
16137;SDS011;8174;43.550;5.206;2022-10-04T03:58:12;4.87;;;3.00;;
16137;SDS011;8174;43.550;5.206;2022-10-04T04:00:41;6.13;;;3.30;;
16137;SDS011;8174;43.550;5.206;2022-10-04T04:03:11;6.53;;;3.40;;
16137;SDS011;8174;43.550;5.206;2022-10-04T04:05:41;5.30;;;3.00;;
16137;SDS011;8174;43.550;5.206;2022-10-04T04:08:10;4.87;;;3.07;;
16137;SDS011;8174;43.550;5.206;2022-10-04T04:10:41;8.00;;;3.10;;
16137;SDS011;8174;43.550;5.206;2022-10-04T04:13:14;5.83;;;2.97;;
16137;SDS011;8174;43.550;5.206;2022-10-04T04:15:45;6.70;;;3.10;;
16137;SDS011;8174;43.550;5.206;2022-10-04T04:18:13;8.27;;;3.13;;
16137;SDS011;8174;43.550;5.206;2022-10-04T04:20:42;15.07;;;3.40;;
16137;SDS011;8174;43.550;5.206;2022-10-04T04:23:11;11.50;;;3.30;;
16137;SDS011;8174;43.550;5.206;2022-10-04T04:25:44;4.90;;;3.17;;
16137;SDS011;8174;43.550;5.206;2022-10-04T04:28:19;7.83;;;3.93;;
16137;SDS011;8174;43.550;5.206;2022-10-04T04:30:50;9.60;;;3.37;;
16137;SDS011;8174;43.550;5.206;2022-10-04T04:33:20;6.47;;;3.33;;
16137;SDS011;8174;43.550;5.206;2022-10-04T04:35:52;7.87;;;3.33;;
16137;SDS011;8174;43.550;5.206;2022-10-04T04:38:22;5.70;;;3.67;;
16137;SDS011;8174;43.550;5.206;2022-10-04T04:40:50;6.50;;;4.10;;
16137;SDS011;8174;43.550;5.206;2022-10-04T04:43:23;8.07;;;3.87;;
16137;SDS011;8174;43.550;5.206;2022-10-04T04:45:51;7.83;;;3.60;;
16137;SDS011;8174;43.550;5.206;2022-10-04T04:48:22;11.77;;;3.93;;
16137;SDS011;8174;43.550;5.206;2022-10-04T04:50:51;8.23;;;3.07;;
16137;SDS011;8174;43.550;5.206;2022-10-04T04:53:21;7.57;;;3.27;;
16137;SDS011;8174;43.550;5.206;2022-10-04T04:55:50;8.67;;;3.90;;
16137;SDS011;8174;43.550;5.206;2022-10-04T04:58:21;6.37;;;3.20;;
16137;SDS011;8174;43.550;5.206;2022-10-04T05:00:52;7.83;;;3.00;;
16137;SDS011;8174;43.550;5.206;2022-10-04T05:03:21;15.17;;;3.67;;
16137;SDS011;8174;43.550;5.206;2022-10-04T05:05:48;6.13;;;3.63;;
16137;SDS011;8174;43.550;5.206;2022-10-04T05:08:18;10.43;;;3.70;;
16137;SDS011;8174;43.550;5.206;2022-10-04T05:10:48;11.30;;;3.70;;
16137;SDS011;8174;43.550;5.206;2022-10-04T05:13:21;14.97;;;4.07;;
16137;SDS011;8174;43.550;5.206;2022-10-04T05:15:51;13.57;;;5.20;;
16137;SDS011;8174;43.550;5.206;2022-10-04T05:18:29;14.67;;;4.53;;
16137;SDS011;8174;43.550;5.206;2022-10-04T05:20:58;9.97;;;3.73;;
16137;SDS011;8174;43.550;5.206;2022-10-04T05:23:29;13.73;;;3.93;;
16137;SDS011;8174;43.550;5.206;2022-10-04T05:25:58;11.20;;;3.63;;
16137;SDS011;8174;43.550;5.206;2022-10-04T05:28:28;14.40;;;3.70;;
16137;SDS011;8174;43.550;5.206;2022-10-04T05:31:01;7.40;;;3.37;;
16137;SDS011;8174;43.550;5.206;2022-10-04T05:33:35;8.43;;;3.23;;
16137;SDS011;8174;43.550;5.206;2022-10-04T05:38:50;11.07;;;3.73;;
16137;SDS011;8174;43.550;5.206;2022-10-04T05:41:20;10.97;;;3.30;;
16137;SDS011;8174;43.550;5.206;2022-10-04T05:43:52;12.13;;;3.67;;
16137;SDS011;8174;43.550;5.206;2022-10-04T05:46:21;13.03;;;4.17;;
16137;SDS011;8174;43.550;5.206;2022-10-04T05:48:53;12.73;;;4.20;;
16137;SDS011;8174;43.550;5.206;2022-10-04T05:51:22;8.57;;;3.60;;
16137;SDS011;8174;43.550;5.206;2022-10-04T05:53:51;14.87;;;3.50;;
16137;SDS011;8174;43.550;5.206;2022-10-04T05:59:20;21.20;;;4.07;;
16137;SDS011;8174;43.550;5.206;2022-10-04T06:01:52;16.30;;;3.53;;
16137;SDS011;8174;43.550;5.206;2022-10-04T06:04:28;19.30;;;4.70;;
16137;SDS011;8174;43.550;5.206;2022-10-04T06:06:58;13.50;;;4.17;;
16137;SDS011;8174;43.550;5.206;2022-10-04T06:09:40;14.70;;;3.90;;
16137;SDS011;8174;43.550;5.206;2022-10-04T06:12:12;11.03;;;3.07;;
16137;SDS011;8174;43.550;5.206;2022-10-04T06:14:53;14.70;;;3.40;;
16137;SDS011;8174;43.550;5.206;2022-10-04T06:17:26;16.83;;;3.70;;
16137;SDS011;8174;43.550;5.206;2022-10-04T06:20:08;14.50;;;3.23;;
16137;SDS011;8174;43.550;5.206;2022-10-04T06:22:41;12.13;;;4.00;;
16137;SDS011;8174;43.550;5.206;2022-10-04T06:25:11;22.03;;;4.33;;
16137;SDS011;8174;43.550;5.206;2022-10-04T06:27:40;23.43;;;4.60;;
16137;SDS011;8174;43.550;5.206;2022-10-04T06:30:13;27.97;;;4.33;;
16137;SDS011;8174;43.550;5.206;2022-10-04T06:32:56;12.93;;;3.60;;
16137;SDS011;8174;43.550;5.206;2022-10-04T06:38:40;12.67;;;3.07;;
16137;SDS011;8174;43.550;5.206;2022-10-04T06:46:45;9.80;;;3.20;;
16137;SDS011;8174;43.550;5.206;2022-10-04T06:49:21;10.27;;;2.60;;
16137;SDS011;8174;43.550;5.206;2022-10-04T06:52:00;11.77;;;3.13;;
16137;SDS011;8174;43.550;5.206;2022-10-04T06:54:35;9.73;;;2.97;;
16137;SDS011;8174;43.550;5.206;2022-10-04T06:57:14;6.37;;;2.50;;
16137;SDS011;8174;43.550;5.206;2022-10-04T06:59:49;9.77;;;2.80;;
16137;SDS011;8174;43.550;5.206;2022-10-04T07:02:23;6.87;;;3.00;;
16137;SDS011;8174;43.550;5.206;2022-10-04T07:04:53;4.77;;;2.50;;
16137;SDS011;8174;43.550;5.206;2022-10-04T07:07:27;9.43;;;2.70;;
16137;SDS011;8174;43.550;5.206;2022-10-04T07:10:08;11.90;;;2.73;;
16137;SDS011;8174;43.550;5.206;2022-10-04T07:12:44;6.20;;;2.83;;
16137;SDS011;8174;43.550;5.206;2022-10-04T07:15:15;8.33;;;2.90;;
16137;SDS011;8174;43.550;5.206;2022-10-04T07:17:45;4.90;;;2.70;;
16137;SDS011;8174;43.550;5.206;2022-10-04T07:20:17;7.40;;;2.60;;
16137;SDS011;8174;43.550;5.206;2022-10-04T07:22:46;5.60;;;2.63;;
16137;SDS011;8174;43.550;5.206;2022-10-04T07:25:17;7.23;;;2.43;;
16137;SDS011;8174;43.550;5.206;2022-10-04T07:27:48;6.00;;;2.60;;
16137;SDS011;8174;43.550;5.206;2022-10-04T07:30:39;6.93;;;2.67;;
16137;SDS011;8174;43.550;5.206;2022-10-04T07:33:10;11.37;;;3.10;;
16137;SDS011;8174;43.550;5.206;2022-10-04T07:35:42;5.50;;;2.77;;
16137;SDS011;8174;43.550;5.206;2022-10-04T07:38:15;4.47;;;3.03;;
16137;SDS011;8174;43.550;5.206;2022-10-04T07:40:56;4.57;;;2.75;;
16137;SDS011;8174;43.550;5.206;2022-10-04T07:43:29;5.53;;;2.93;;
16137;SDS011;8174;43.550;5.206;2022-10-04T07:46:01;6.50;;;2.45;;
16137;SDS011;8174;43.550;5.206;2022-10-04T07:48:38;4.68;;;2.47;;
16137;SDS011;8174;43.550;5.206;2022-10-04T07:51:13;3.15;;;2.28;;
16137;SDS011;8174;43.550;5.206;2022-10-04T07:53:45;5.72;;;2.20;;
16137;SDS011;8174;43.550;5.206;2022-10-04T07:56:16;5.32;;;2.22;;
16137;SDS011;8174;43.550;5.206;2022-10-04T07:58:47;4.55;;;2.40;;
16137;SDS011;8174;43.550;5.206;2022-10-04T08:01:20;6.13;;;2.30;;
16137;SDS011;8174;43.550;5.206;2022-10-04T08:03:57;4.30;;;2.30;;
16137;SDS011;8174;43.550;5.206;2022-10-04T08:06:30;5.78;;;2.50;;
16137;SDS011;8174;43.550;5.206;2022-10-04T08:09:09;4.53;;;2.35;;
16137;SDS011;8174;43.550;5.206;2022-10-04T08:11:41;5.88;;;2.10;;
16137;SDS011;8174;43.550;5.206;2022-10-04T08:14:20;9.38;;;2.67;;
16137;SDS011;8174;43.550;5.206;2022-10-04T08:16:53;3.17;;;1.85;;
16137;SDS011;8174;43.550;5.206;2022-10-04T08:19:27;5.22;;;1.90;;
16137;SDS011;8174;43.550;5.206;2022-10-04T08:22:01;7.65;;;2.50;;
16137;SDS011;8174;43.550;5.206;2022-10-04T08:24:31;3.10;;;1.98;;
16137;SDS011;8174;43.550;5.206;2022-10-04T08:27:12;4.57;;;1.70;;
16137;SDS011;8174;43.550;5.206;2022-10-04T08:29:53;8.75;;;2.03;;
16137;SDS011;8174;43.550;5.206;2022-10-04T08:32:29;3.53;;;1.90;;
16137;SDS011;8174;43.550;5.206;2022-10-04T08:35:05;3.75;;;1.50;;
16137;SDS011;8174;43.550;5.206;2022-10-04T08:37:44;2.10;;;1.50;;
16137;SDS011;8174;43.550;5.206;2022-10-04T08:40:20;4.38;;;1.63;;
16137;SDS011;8174;43.550;5.206;2022-10-04T08:43:02;6.38;;;1.65;;
16137;SDS011;8174;43.550;5.206;2022-10-04T08:56:54;4.90;;;1.80;;
16137;SDS011;8174;43.550;5.206;2022-10-04T09:02:10;5.32;;;1.77;;
16137;SDS011;8174;43.550;5.206;2022-10-04T09:04:51;4.95;;;1.90;;
16137;SDS011;8174;43.550;5.206;2022-10-04T09:07:25;4.47;;;2.05;;
16137;SDS011;8174;43.550;5.206;2022-10-04T09:10:14;3.20;;;1.67;;
16137;SDS011;8174;43.550;5.206;2022-10-04T09:12:58;5.20;;;1.90;;
16137;SDS011;8174;43.550;5.206;2022-10-04T09:15:37;7.43;;;1.88;;
16137;SDS011;8174;43.550;5.206;2022-10-04T09:18:18;5.82;;;1.70;;
16137;SDS011;8174;43.550;5.206;2022-10-04T09:20:50;4.45;;;1.63;;
16137;SDS011;8174;43.550;5.206;2022-10-04T09:26:07;6.97;;;3.10;;
16137;SDS011;8174;43.550;5.206;2022-10-04T09:31:28;6.53;;;2.40;;
16137;SDS011;8174;43.550;5.206;2022-10-04T09:34:06;4.93;;;2.60;;
16137;SDS011;8174;43.550;5.206;2022-10-04T09:36:42;4.68;;;2.13;;
16137;SDS011;8174;43.550;5.206;2022-10-04T09:39:26;7.38;;;1.92;;
16137;SDS011;8174;43.550;5.206;2022-10-04T09:42:21;3.53;;;1.90;;
16137;SDS011;8174;43.550;5.206;2022-10-04T09:44:57;4.45;;;2.50;;
16137;SDS011;8174;43.550;5.206;2022-10-04T09:47:32;7.22;;;2.50;;
16137;SDS011;8174;43.550;5.206;2022-10-04T09:53:03;4.80;;;1.90;;
16137;SDS011;8174;43.550;5.206;2022-10-04T09:55:39;5.90;;;2.33;;
16137;SDS011;8174;43.550;5.206;2022-10-04T10:00:54;4.93;;;2.20;;
16137;SDS011;8174;43.550;5.206;2022-10-04T10:03:32;8.43;;;2.10;;
16137;SDS011;8174;43.550;5.206;2022-10-04T10:06:16;6.07;;;2.00;;
16137;SDS011;8174;43.550;5.206;2022-10-04T10:08:47;6.50;;;2.13;;
16137;SDS011;8174;43.550;5.206;2022-10-04T10:11:20;4.82;;;1.92;;
16137;SDS011;8174;43.550;5.206;2022-10-04T10:14:15;5.40;;;2.13;;
16137;SDS011;8174;43.550;5.206;2022-10-04T10:16:51;8.65;;;2.40;;
16137;SDS011;8174;43.550;5.206;2022-10-04T10:19:26;6.25;;;1.90;;
16137;SDS011;8174;43.550;5.206;2022-10-04T10:22:02;5.85;;;2.13;;
16137;SDS011;8174;43.550;5.206;2022-10-04T10:24:41;5.95;;;2.05;;
16137;SDS011;8174;43.550;5.206;2022-10-04T10:27:18;10.70;;;2.60;;
16137;SDS011;8174;43.550;5.206;2022-10-04T10:30:07;7.85;;;2.22;;
16137;SDS011;8174;43.550;5.206;2022-10-04T10:35:36;7.90;;;2.25;;
16137;SDS011;8174;43.550;5.206;2022-10-04T10:38:21;10.02;;;2.63;;
16137;SDS011;8174;43.550;5.206;2022-10-04T10:40:53;9.88;;;2.38;;
16137;SDS011;8174;43.550;5.206;2022-10-04T10:43:40;6.68;;;2.20;;
16137;SDS011;8174;43.550;5.206;2022-10-04T10:48:56;10.05;;;2.38;;
16137;SDS011;8174;43.550;5.206;2022-10-04T10:51:34;7.95;;;2.25;;
16137;SDS011;8174;43.550;5.206;2022-10-04T10:54:27;11.80;;;2.50;;
16137;SDS011;8174;43.550;5.206;2022-10-04T10:57:04;12.60;;;2.30;;
16137;SDS011;8174;43.550;5.206;2022-10-04T10:59:56;6.10;;;2.20;;
16137;SDS011;8174;43.550;5.206;2022-10-04T11:02:35;6.38;;;1.98;;
16137;SDS011;8174;43.550;5.206;2022-10-04T11:05:18;3.67;;;1.75;;
16137;SDS011;8174;43.550;5.206;2022-10-04T11:07:52;10.00;;;2.33;;
16137;SDS011;8174;43.550;5.206;2022-10-04T11:18:47;5.60;;;2.20;;
16137;SDS011;8174;43.550;5.206;2022-10-04T11:21:30;8.45;;;2.30;;
16137;SDS011;8174;43.550;5.206;2022-10-04T11:29:49;12.65;;;2.90;;
16137;SDS011;8174;43.550;5.206;2022-10-04T11:35:20;4.47;;;2.10;;
16137;SDS011;8174;43.550;5.206;2022-10-04T11:37:56;5.22;;;2.30;;
16137;SDS011;8174;43.550;5.206;2022-10-04T11:40:34;5.47;;;2.13;;
16137;SDS011;8174;43.550;5.206;2022-10-04T11:43:12;7.18;;;2.30;;
16137;SDS011;8174;43.550;5.206;2022-10-04T11:48:34;6.82;;;1.65;;
16137;SDS011;8174;43.550;5.206;2022-10-04T11:51:26;5.68;;;1.80;;
16137;SDS011;8174;43.550;5.206;2022-10-04T11:54:04;6.05;;;2.10;;
16137;SDS011;8174;43.550;5.206;2022-10-04T11:56:57;8.43;;;2.20;;
16137;SDS011;8174;43.550;5.206;2022-10-04T11:59:37;5.22;;;2.08;;
16137;SDS011;8174;43.550;5.206;2022-10-04T12:05:11;8.90;;;2.60;;
16137;SDS011;8174;43.550;5.206;2022-10-04T12:07:56;11.77;;;2.65;;
16137;SDS011;8174;43.550;5.206;2022-10-04T12:10:33;8.15;;;2.50;;
16137;SDS011;8174;43.550;5.206;2022-10-04T12:13:07;8.65;;;2.65;;
16137;SDS011;8174;43.550;5.206;2022-10-04T12:21:24;8.48;;;2.35;;
16137;SDS011;8174;43.550;5.206;2022-10-04T12:24:03;9.45;;;2.40;;
16137;SDS011;8174;43.550;5.206;2022-10-04T12:29:29;5.80;;;2.10;;
16137;SDS011;8174;43.550;5.206;2022-10-04T12:32:03;6.13;;;1.98;;
16137;SDS011;8174;43.550;5.206;2022-10-04T12:34:34;7.05;;;2.35;;
16137;SDS011;8174;43.550;5.206;2022-10-04T12:37:11;10.05;;;2.30;;
16137;SDS011;8174;43.550;5.206;2022-10-04T12:39:57;10.10;;;2.20;;
16137;SDS011;8174;43.550;5.206;2022-10-04T12:42:32;9.05;;;2.70;;
16137;SDS011;8174;43.550;5.206;2022-10-04T12:45:13;9.98;;;2.30;;
16137;SDS011;8174;43.550;5.206;2022-10-04T12:48:00;9.43;;;2.50;;
16137;SDS011;8174;43.550;5.206;2022-10-04T12:50:32;11.20;;;2.50;;
16137;SDS011;8174;43.550;5.206;2022-10-04T12:53:05;10.02;;;2.60;;
16137;SDS011;8174;43.550;5.206;2022-10-04T12:58:25;7.20;;;2.45;;
16137;SDS011;8174;43.550;5.206;2022-10-04T13:00:59;11.18;;;3.20;;
16137;SDS011;8174;43.550;5.206;2022-10-04T13:03:42;8.43;;;2.13;;
16137;SDS011;8174;43.550;5.206;2022-10-04T13:06:13;10.73;;;2.80;;
16137;SDS011;8174;43.550;5.206;2022-10-04T13:08:52;7.45;;;2.42;;
16137;SDS011;8174;43.550;5.206;2022-10-04T13:11:30;11.15;;;2.78;;
16137;SDS011;8174;43.550;5.206;2022-10-04T13:16:48;12.23;;;2.75;;
16137;SDS011;8174;43.550;5.206;2022-10-04T13:19:18;8.80;;;2.70;;
16137;SDS011;8174;43.550;5.206;2022-10-04T13:24:49;9.10;;;2.60;;
16137;SDS011;8174;43.550;5.206;2022-10-04T13:27:33;9.50;;;2.40;;
16137;SDS011;8174;43.550;5.206;2022-10-04T13:30:04;10.10;;;2.47;;
16137;SDS011;8174;43.550;5.206;2022-10-04T13:32:34;7.88;;;2.60;;
16137;SDS011;8174;43.550;5.206;2022-10-04T13:35:10;8.73;;;2.40;;
16137;SDS011;8174;43.550;5.206;2022-10-04T13:37:41;8.90;;;2.38;;
16137;SDS011;8174;43.550;5.206;2022-10-04T13:43:23;6.78;;;2.50;;
16137;SDS011;8174;43.550;5.206;2022-10-04T13:45:58;10.40;;;2.50;;
16137;SDS011;8174;43.550;5.206;2022-10-04T13:48:33;11.32;;;2.80;;
16137;SDS011;8174;43.550;5.206;2022-10-04T13:51:14;11.60;;;3.10;;
16137;SDS011;8174;43.550;5.206;2022-10-04T13:53:47;6.75;;;2.63;;
16137;SDS011;8174;43.550;5.206;2022-10-04T13:56:42;12.27;;;2.67;;
16137;SDS011;8174;43.550;5.206;2022-10-04T13:59:16;10.82;;;2.97;;
16137;SDS011;8174;43.550;5.206;2022-10-04T14:07:35;10.93;;;2.83;;
16137;SDS011;8174;43.550;5.206;2022-10-04T14:10:11;11.90;;;2.88;;
16137;SDS011;8174;43.550;5.206;2022-10-04T14:12:55;18.02;;;3.10;;
16137;SDS011;8174;43.550;5.206;2022-10-04T14:18:37;10.05;;;2.88;;
16137;SDS011;8174;43.550;5.206;2022-10-04T14:24:01;7.18;;;2.30;;
16137;SDS011;8174;43.550;5.206;2022-10-04T14:26:50;14.82;;;2.50;;
16137;SDS011;8174;43.550;5.206;2022-10-04T14:29:33;11.20;;;2.60;;
16137;SDS011;8174;43.550;5.206;2022-10-04T14:32:11;10.65;;;3.15;;
16137;SDS011;8174;43.550;5.206;2022-10-04T14:34:53;9.52;;;2.80;;
16137;SDS011;8174;43.550;5.206;2022-10-04T14:40:19;6.82;;;2.38;;
16137;SDS011;8174;43.550;5.206;2022-10-04T14:43:12;11.68;;;2.83;;
16137;SDS011;8174;43.550;5.206;2022-10-04T14:45:53;12.63;;;2.40;;
16137;SDS011;8174;43.550;5.206;2022-10-04T14:54:02;15.27;;;3.05;;
16137;SDS011;8174;43.550;5.206;2022-10-04T14:56:43;8.88;;;2.25;;
16137;SDS011;8174;43.550;5.206;2022-10-04T14:59:23;10.88;;;2.38;;
16137;SDS011;8174;43.550;5.206;2022-10-04T15:07:49;12.25;;;2.63;;
16137;SDS011;8174;43.550;5.206;2022-10-04T15:10:21;8.65;;;2.97;;
16137;SDS011;8174;43.550;5.206;2022-10-04T15:12:58;10.60;;;2.67;;
16137;SDS011;8174;43.550;5.206;2022-10-04T15:18:12;14.68;;;2.70;;
16137;SDS011;8174;43.550;5.206;2022-10-04T15:20:52;11.63;;;2.63;;
16137;SDS011;8174;43.550;5.206;2022-10-04T15:23:27;7.05;;;2.30;;
16137;SDS011;8174;43.550;5.206;2022-10-04T15:25:59;9.40;;;2.47;;
16137;SDS011;8174;43.550;5.206;2022-10-04T15:28:36;12.15;;;2.50;;
16137;SDS011;8174;43.550;5.206;2022-10-04T15:31:07;11.32;;;2.45;;
16137;SDS011;8174;43.550;5.206;2022-10-04T15:33:39;8.90;;;2.58;;
16137;SDS011;8174;43.550;5.206;2022-10-04T15:36:23;9.10;;;2.63;;
16137;SDS011;8174;43.550;5.206;2022-10-04T15:38:53;5.57;;;2.45;;
16137;SDS011;8174;43.550;5.206;2022-10-04T15:41:31;6.38;;;2.05;;
16137;SDS011;8174;43.550;5.206;2022-10-04T15:44:13;11.27;;;2.40;;
16137;SDS011;8174;43.550;5.206;2022-10-04T15:46:44;8.90;;;2.47;;
16137;SDS011;8174;43.550;5.206;2022-10-04T15:52:08;10.05;;;2.40;;
16137;SDS011;8174;43.550;5.206;2022-10-04T15:57:28;6.63;;;2.30;;
16137;SDS011;8174;43.550;5.206;2022-10-04T16:00:02;7.65;;;2.33;;
16137;SDS011;8174;43.550;5.206;2022-10-04T16:05:22;8.60;;;2.85;;
16137;SDS011;8174;43.550;5.206;2022-10-04T16:10:52;10.63;;;2.58;;
16137;SDS011;8174;43.550;5.206;2022-10-04T16:13:36;8.20;;;2.30;;
16137;SDS011;8174;43.550;5.206;2022-10-04T16:19:06;9.63;;;2.75;;
16137;SDS011;8174;43.550;5.206;2022-10-04T16:21:40;8.32;;;2.90;;
16137;SDS011;8174;43.550;5.206;2022-10-04T16:24:27;8.23;;;3.08;;
16137;SDS011;8174;43.550;5.206;2022-10-04T16:27:11;10.43;;;3.20;;
16137;SDS011;8174;43.550;5.206;2022-10-04T16:29:45;7.57;;;2.65;;
16137;SDS011;8174;43.550;5.206;2022-10-04T16:32:17;8.13;;;3.20;;
16137;SDS011;8174;43.550;5.206;2022-10-04T16:34:48;10.10;;;2.92;;
16137;SDS011;8174;43.550;5.206;2022-10-04T16:37:25;10.90;;;3.00;;
16137;SDS011;8174;43.550;5.206;2022-10-04T16:39:55;8.63;;;2.60;;
16137;SDS011;8174;43.550;5.206;2022-10-04T16:42:38;7.97;;;2.50;;
16137;SDS011;8174;43.550;5.206;2022-10-04T16:47:52;9.00;;;2.70;;
16137;SDS011;8174;43.550;5.206;2022-10-04T16:53:16;6.68;;;2.60;;
16137;SDS011;8174;43.550;5.206;2022-10-04T16:55:49;8.30;;;2.50;;
16137;SDS011;8174;43.550;5.206;2022-10-04T17:03:53;10.10;;;3.50;;
16137;SDS011;8174;43.550;5.206;2022-10-04T17:06:24;11.18;;;3.70;;
16137;SDS011;8174;43.550;5.206;2022-10-04T17:09:06;7.75;;;3.00;;
16137;SDS011;8174;43.550;5.206;2022-10-04T17:11:42;10.10;;;3.08;;
16137;SDS011;8174;43.550;5.206;2022-10-04T17:16:57;11.82;;;3.75;;
16137;SDS011;8174;43.550;5.206;2022-10-04T17:19:29;12.77;;;3.88;;
16137;SDS011;8174;43.550;5.206;2022-10-04T17:22:02;7.65;;;3.30;;
16137;SDS011;8174;43.550;5.206;2022-10-04T17:24:35;12.98;;;3.42;;
16137;SDS011;8174;43.550;5.206;2022-10-04T17:29:53;11.35;;;3.00;;
16137;SDS011;8174;43.550;5.206;2022-10-04T17:32:24;7.85;;;2.88;;
16137;SDS011;8174;43.550;5.206;2022-10-04T17:35:02;14.10;;;2.75;;
16137;SDS011;8174;43.550;5.206;2022-10-04T17:37:36;9.57;;;2.80;;
16137;SDS011;8174;43.550;5.206;2022-10-04T17:40:18;11.25;;;2.60;;
16137;SDS011;8174;43.550;5.206;2022-10-04T17:42:48;13.50;;;2.80;;
16137;SDS011;8174;43.550;5.206;2022-10-04T17:48:07;10.65;;;3.28;;
16137;SDS011;8174;43.550;5.206;2022-10-04T17:50:57;18.27;;;3.72;;
16137;SDS011;8174;43.550;5.206;2022-10-04T17:53:45;15.48;;;3.10;;
16137;SDS011;8174;43.550;5.206;2022-10-04T17:56:32;12.57;;;3.22;;
16137;SDS011;8174;43.550;5.206;2022-10-04T17:59:04;12.43;;;3.92;;
16137;SDS011;8174;43.550;5.206;2022-10-04T18:01:34;16.48;;;4.07;;
16137;SDS011;8174;43.550;5.206;2022-10-04T18:04:06;12.45;;;3.70;;
16137;SDS011;8174;43.550;5.206;2022-10-04T18:06:36;19.98;;;4.28;;
16137;SDS011;8174;43.550;5.206;2022-10-04T18:09:07;12.98;;;3.63;;
16137;SDS011;8174;43.550;5.206;2022-10-04T18:11:40;13.98;;;3.55;;
16137;SDS011;8174;43.550;5.206;2022-10-04T18:14:12;11.50;;;4.03;;
16137;SDS011;8174;43.550;5.206;2022-10-04T18:16:46;12.75;;;4.20;;
16137;SDS011;8174;43.550;5.206;2022-10-04T18:19:35;16.60;;;4.70;;
16137;SDS011;8174;43.550;5.206;2022-10-04T18:22:11;14.35;;;4.30;;